Time;durP1;ratioP1;P1;durP2;ratioP2;P2;SDS_P1;SDS_P2;PMS_P1;PMS_P2;Temp;Humidity;BMP_temperature;BMP_pressure;BME280_temperature;BME280_humidity;BME280_pressure;Samples;Min_cycle;Max_cycle;Signal;HPM_P1;HPM_P2
2023/12/15 00:01:55;;;;;;;8.48;2.30;;;;;;;6.68;100.00;101266.59;5001699;28;20049;-71
2023/12/15 00:04:21;;;;;;;6.80;2.05;;;;;;;6.62;100.00;101257.13;5011377;28;20108;-71
2023/12/15 00:06:48;;;;;;;12.45;2.25;;;;;;;6.59;100.00;101257.16;5011093;28;20097;-71
2023/12/15 00:09:15;;;;;;;8.68;1.92;;;;;;;6.84;100.00;101281.97;5009256;28;20440;-71
2023/12/15 00:11:42;;;;;;;10.25;1.83;;;;;;;6.88;100.00;101269.78;5004109;28;20052;-71
2023/12/15 00:14:08;;;;;;;11.80;2.40;;;;;;;6.72;100.00;101263.94;5007560;28;20158;-71
2023/12/15 00:16:35;;;;;;;8.40;2.03;;;;;;;6.97;100.00;101271.41;5010428;28;20046;-71
2023/12/15 00:19:02;;;;;;;11.02;2.75;;;;;;;6.95;100.00;101271.41;5009937;28;20393;-71
2023/12/15 00:21:29;;;;;;;15.23;2.25;;;;;;;6.98;100.00;101278.34;4999066;28;20467;-70
2023/12/15 00:23:56;;;;;;;6.00;1.60;;;;;;;7.09;100.00;101286.84;5009267;28;20516;-70
2023/12/15 00:26:23;;;;;;;8.73;1.92;;;;;;;7.07;100.00;101290.38;5008493;28;20049;-71
2023/12/15 00:28:49;;;;;;;5.90;1.77;;;;;;;6.92;100.00;101287.06;5009425;28;20455;-71
2023/12/15 00:31:17;;;;;;;4.20;1.40;;;;;;;7.04;100.00;101307.72;5009400;28;20884;-71
2023/12/15 00:33:43;;;;;;;5.43;1.42;;;;;;;7.01;100.00;101299.09;5010717;28;20050;-71
2023/12/15 00:36:10;;;;;;;8.57;1.77;;;;;;;7.07;100.00;101321.63;5010483;28;20085;-71
2023/12/15 00:38:37;;;;;;;7.05;2.17;;;;;;;7.09;100.00;101343.28;5010167;28;20054;-71
2023/12/15 00:41:04;;;;;;;10.55;1.75;;;;;;;6.99;100.00;101342.53;5000224;28;20060;-71
2023/12/15 00:43:30;;;;;;;6.05;1.70;;;;;;;6.91;100.00;101334.84;5004554;28;20531;-71
2023/12/15 00:45:57;;;;;;;7.22;1.80;;;;;;;6.68;100.00;101295.22;5009099;28;20053;-71
2023/12/15 00:48:24;;;;;;;10.68;1.88;;;;;;;6.88;100.00;101323.59;5000549;28;20050;-71
2023/12/15 00:50:51;;;;;;;7.53;1.70;;;;;;;6.89;100.00;101314.88;5008258;28;20133;-71
2023/12/15 00:53:17;;;;;;;9.85;2.45;;;;;;;6.88;100.00;101306.22;5009710;28;20427;-70
2023/12/15 00:55:44;;;;;;;7.28;1.70;;;;;;;6.83;100.00;101298.50;5009061;28;20046;-71
2023/12/15 00:58:11;;;;;;;11.23;2.90;;;;;;;6.67;100.00;101303.91;4992586;28;20399;-71
2023/12/15 01:00:37;;;;;;;10.98;2.15;;;;;;;6.69;100.00;101291.72;5001464;28;20073;-71
2023/12/15 01:03:04;;;;;;;8.00;2.28;;;;;;;6.78;100.00;101307.22;5009472;28;20049;-70
2023/12/15 01:05:31;;;;;;;9.38;2.63;;;;;;;6.97;100.00;101316.50;5009343;28;20077;-71
2023/12/15 01:07:58;;;;;;;13.07;3.15;;;;;;;6.83;100.00;101313.22;5010363;28;20571;-71
2023/12/15 01:10:25;;;;;;;13.43;2.97;;;;;;;6.83;100.00;101306.31;5004818;28;20050;-70
2023/12/15 01:12:51;;;;;;;11.43;2.38;;;;;;;6.90;100.00;101327.88;5009764;28;20038;-70
2023/12/15 01:15:18;;;;;;;9.93;2.53;;;;;;;6.81;100.00;101307.19;5009618;28;20054;-71
2023/12/15 01:17:45;;;;;;;9.48;2.08;;;;;;;6.89;100.00;101313.16;5009845;28;20483;-70
2023/12/15 01:20:13;;;;;;;9.10;2.03;;;;;;;6.84;100.00;101315.81;4999868;28;20569;-70
2023/12/15 01:22:40;;;;;;;9.02;1.80;;;;;;;7.01;100.00;101325.16;5004496;28;20056;-70
2023/12/15 01:25:07;;;;;;;8.32;3.35;;;;;;;7.05;100.00;101347.69;5005787;28;20399;-70
2023/12/15 01:27:34;;;;;;;6.55;1.70;;;;;;;7.06;100.00;101340.72;4985696;28;20053;-70
2023/12/15 01:30:02;;;;;;;7.30;1.83;;;;;;;6.96;100.00;101347.81;5003166;28;20073;-71
2023/12/15 01:32:28;;;;;;;9.63;1.85;;;;;;;7.07;100.00;101350.25;5001659;28;20133;-70
2023/12/15 01:34:55;;;;;;;6.13;1.92;;;;;;;7.09;100.00;101351.94;5009481;28;20049;-70
2023/12/15 01:37:22;;;;;;;8.95;1.73;;;;;;;7.05;100.00;101352.88;5009321;28;20052;-70
2023/12/15 01:39:50;;;;;;;7.00;1.73;;;;;;;7.03;100.00;101345.09;5005537;28;20063;-70
2023/12/15 01:42:16;;;;;;;4.65;1.50;;;;;;;7.03;100.00;101334.69;5007836;28;20052;-70
2023/12/15 01:44:43;;;;;;;11.70;2.22;;;;;;;6.93;100.00;101334.81;5007496;28;20361;-71
2023/12/15 01:47:13;;;;;;;7.22;1.60;;;;;;;6.89;100.00;101335.72;5006704;28;20054;-70
2023/12/15 01:49:40;;;;;;;8.63;1.88;;;;;;;6.82;100.00;101324.53;5008146;28;20140;-71
2023/12/15 01:52:07;;;;;;;6.10;1.90;;;;;;;6.72;100.00;101339.41;5001963;28;20046;-71
2023/12/15 01:54:33;;;;;;;8.57;2.15;;;;;;;6.67;100.00;101329.94;5007404;28;20556;-70
2023/12/15 01:57:00;;;;;;;9.95;2.55;;;;;;;6.50;100.00;101317.09;5012990;28;20053;-71
2023/12/15 01:59:40;;;;;;;7.90;2.08;;;;;;;6.46;100.00;101291.16;5009160;28;20737;-71
2023/12/15 02:02:07;;;;;;;8.48;2.03;;;;;;;6.52;100.00;101316.22;5006421;28;20049;-71
2023/12/15 02:04:34;;;;;;;8.68;1.50;;;;;;;6.45;100.00;101304.16;5012673;28;20124;-71
2023/12/15 02:07:00;;;;;;;8.50;2.00;;;;;;;6.47;100.00;101312.81;5005833;28;20066;-71
2023/12/15 02:09:27;;;;;;;9.80;2.00;;;;;;;6.57;100.00;101335.25;5010136;28;20056;-71
2023/12/15 02:11:54;;;;;;;10.38;2.55;;;;;;;6.54;100.00;101350.03;5011172;28;20054;-71
2023/12/15 02:14:20;;;;;;;14.50;2.40;;;;;;;6.54;100.00;101356.09;5012039;28;20045;-71
2023/12/15 02:16:47;;;;;;;9.95;2.28;;;;;;;6.59;100.00;101361.25;5011997;28;20054;-71
2023/12/15 02:19:14;;;;;;;9.60;3.05;;;;;;;6.63;100.00;101357.72;5012322;28;20066;-71
2023/12/15 02:21:40;;;;;;;9.15;2.20;;;;;;;6.51;100.00;101352.66;5009796;28;20459;-71
2023/12/15 02:24:07;;;;;;;9.25;2.45;;;;;;;6.55;100.00;101354.34;5012404;28;20053;-71
2023/12/15 02:26:34;;;;;;;10.45;2.15;;;;;;;6.54;100.00;101347.44;5012180;28;20706;-71
2023/12/15 02:29:00;;;;;;;13.43;2.40;;;;;;;6.54;100.00;101355.22;5012348;28;20042;-70
2023/12/15 02:31:27;;;;;;;14.43;2.40;;;;;;;6.61;100.00;101368.16;5011894;28;20074;-70
2023/12/15 02:33:54;;;;;;;10.65;2.42;;;;;;;6.69;100.00;101368.06;5012564;28;20073;-71
2023/12/15 02:36:22;;;;;;;7.15;1.92;;;;;;;6.75;100.00;101359.34;5010976;28;20080;-71
2023/12/15 02:38:49;;;;;;;10.13;2.15;;;;;;;6.72;100.00;101348.94;5012384;28;20065;-71
2023/12/15 02:41:16;;;;;;;8.43;2.13;;;;;;;6.75;100.00;101347.19;5011220;28;20049;-71
2023/12/15 02:43:43;;;;;;;8.15;1.80;;;;;;;6.77;100.00;101357.56;4994922;28;20502;-71
2023/12/15 02:46:10;;;;;;;5.68;1.80;;;;;;;6.80;100.00;101360.16;5011779;28;20045;-71
2023/12/15 02:48:36;;;;;;;7.80;1.88;;;;;;;6.98;100.00;101354.69;4994893;28;20058;-70
2023/12/15 02:51:03;;;;;;;9.13;1.88;;;;;;;6.78;100.00;101360.16;5013635;28;20105;-70
2023/12/15 02:53:30;;;;;;;5.82;1.67;;;;;;;6.84;100.00;101357.47;4995026;28;20076;-70
2023/12/15 02:55:57;;;;;;;6.78;1.98;;;;;;;6.74;100.00;101355.84;5011100;28;20499;-70
2023/12/15 02:58:23;;;;;;;9.20;1.88;;;;;;;6.74;100.00;101355.00;5012110;28;20496;-70
2023/12/15 03:00:50;;;;;;;7.82;1.98;;;;;;;6.69;100.00;101355.03;5006862;28;20133;-70
2023/12/15 03:03:17;;;;;;;7.90;2.35;;;;;;;6.67;100.00;101358.56;5011644;28;20052;-71
2023/12/15 03:05:43;;;;;;;4.32;1.55;;;;;;;6.64;100.00;101359.47;5011524;28;20123;-70
2023/12/15 03:08:10;;;;;;;6.68;1.60;;;;;;;6.68;100.00;101366.34;5001630;28;20821;-70
2023/12/15 03:10:37;;;;;;;4.53;1.70;;;;;;;6.61;100.00;101375.09;5007083;28;20093;-71
2023/12/15 03:13:03;;;;;;;7.55;1.77;;;;;;;6.85;100.00;101379.16;4998383;28;20472;-71
2023/12/15 03:15:30;;;;;;;8.48;1.67;;;;;;;6.80;100.00;101392.22;5002048;28;20046;-71
2023/12/15 03:17:57;;;;;;;5.88;1.48;;;;;;;6.90;100.00;101392.13;5011282;28;20060;-71
2023/12/15 03:20:23;;;;;;;6.03;1.52;;;;;;;6.81;100.00;101387.88;5004521;28;20054;-71
2023/12/15 03:22:50;;;;;;;10.65;1.90;;;;;;;6.89;100.00;101387.78;5011318;28;20249;-71
2023/12/15 03:25:17;;;;;;;6.43;1.50;;;;;;;7.06;100.00;101406.66;5010211;28;20054;-71
2023/12/15 03:27:43;;;;;;;6.15;1.50;;;;;;;7.10;100.00;101424.00;5010092;28;20053;-71
2023/12/15 03:30:10;;;;;;;8.25;1.77;;;;;;;7.07;100.00;101402.34;5009058;28;20049;-71
2023/12/15 03:32:37;;;;;;;9.30;1.98;;;;;;;7.03;100.00;101417.16;5011060;28;20052;-70
2023/12/15 03:35:04;;;;;;;9.18;2.60;;;;;;;7.04;100.00;101404.06;4990677;28;20054;-70
2023/12/15 03:37:31;;;;;;;9.55;1.75;;;;;;;7.04;100.00;101400.63;5011257;28;20073;-70
2023/12/15 03:39:58;;;;;;;6.70;1.30;;;;;;;6.90;100.00;101399.94;5010086;28;20050;-71
2023/12/15 03:42:24;;;;;;;5.97;2.13;;;;;;;6.96;100.00;101408.53;5011569;28;20421;-71
2023/12/15 03:44:51;;;;;;;7.47;1.95;;;;;;;6.87;100.00;101405.16;4988465;28;20476;-71
2023/12/15 03:47:18;;;;;;;3.75;1.30;;;;;;;6.99;100.00;101413.72;5009627;28;20516;-71
2023/12/15 03:49:45;;;;;;;6.25;1.77;;;;;;;6.91;100.00;101404.28;4992333;28;20060;-71
2023/12/15 03:52:12;;;;;;;4.47;1.58;;;;;;;6.90;100.00;101395.56;5010994;28;20495;-70
2023/12/15 03:54:38;;;;;;;5.50;1.50;;;;;;;6.80;100.00;101407.84;4992895;28;20069;-70
2023/12/15 03:57:05;;;;;;;7.03;1.88;;;;;;;6.67;100.00;101411.44;5009675;28;20054;-70
2023/12/15 03:59:32;;;;;;;5.03;1.63;;;;;;;6.61;100.00;101408.94;5010746;28;20050;-70
2023/12/15 04:01:58;;;;;;;10.23;2.78;;;;;;;6.56;100.00;101413.31;5004038;28;20061;-70
2023/12/15 04:04:25;;;;;;;6.60;1.65;;;;;;;6.67;100.00;101413.19;5010435;28;20073;-70
2023/12/15 04:06:52;;;;;;;3.38;1.25;;;;;;;6.52;100.00;101417.69;5011132;28;20491;-70
2023/12/15 04:09:19;;;;;;;9.82;1.65;;;;;;;6.56;100.00;101415.91;5011555;28;20050;-71
2023/12/15 04:11:46;;;;;;;4.45;1.40;;;;;;;6.49;100.00;101416.84;5010204;28;20549;-70
2023/12/15 04:14:13;;;;;;;3.90;1.52;;;;;;;6.47;100.00;101407.31;5005434;28;20117;-70
2023/12/15 04:16:40;;;;;;;6.32;1.50;;;;;;;6.40;100.00;101410.00;5007050;28;20136;-71
2023/12/15 04:19:07;;;;;;;5.00;1.50;;;;;;;6.31;100.00;101418.75;5010164;28;20092;-70
2023/12/15 04:21:34;;;;;;;6.47;1.65;;;;;;;6.45;100.00;101414.28;5002369;28;20081;-70
2023/12/15 04:24:01;;;;;;;5.32;1.40;;;;;;;6.55;100.00;101401.16;5009777;28;20078;-71
2023/12/15 04:26:28;;;;;;;4.88;1.40;;;;;;;6.55;100.00;101411.56;5008367;28;20053;-71
2023/12/15 04:28:55;;;;;;;3.63;1.33;;;;;;;6.51;100.00;101409.91;5003354;28;20507;-70
2023/12/15 04:31:22;;;;;;;4.80;1.30;;;;;;;6.52;100.00;101438.50;5004790;28;20096;-70
2023/12/15 04:33:48;;;;;;;3.67;1.55;;;;;;;6.52;100.00;101432.44;5006283;28;20057;-70
2023/12/15 04:36:21;;;;;;;3.92;1.25;;;;;;;6.48;100.00;101429.00;5002826;28;20084;-70
2023/12/15 04:38:48;;;;;;;5.18;1.55;;;;;;;6.44;100.00;101442.91;5009256;28;20096;-70
2023/12/15 04:41:23;;;;;;;5.95;2.10;;;;;;;6.39;100.00;101442.06;5009924;28;20145;-69
2023/12/15 04:43:50;;;;;;;4.28;1.45;;;;;;;6.38;100.00;101448.16;5008131;28;20077;-71
2023/12/15 04:46:30;;;;;;;5.47;1.30;;;;;;;6.19;100.00;101437.91;5004503;28;20054;-71
2023/12/15 04:48:59;;;;;;;5.10;1.42;;;;;;;5.90;100.00;101428.56;5010200;28;20513;-71
2023/12/15 04:51:26;;;;;;;4.55;1.30;;;;;;;5.92;100.00;101451.09;5008436;28;20062;-71
2023/12/15 04:53:53;;;;;;;5.13;1.42;;;;;;;5.87;100.00;101441.59;5008792;28;20050;-71
2023/12/15 04:56:20;;;;;;;5.22;1.55;;;;;;;5.84;100.00;101438.13;5009094;28;20479;-71
2023/12/15 04:58:47;;;;;;;6.70;2.90;;;;;;;5.61;100.00;101412.31;5007447;28;20086;-71
2023/12/15 05:01:14;;;;;;;5.05;1.30;;;;;;;5.76;100.00;101451.19;5008480;28;20052;-71
2023/12/15 05:03:42;;;;;;;4.93;1.40;;;;;;;5.78;100.00;101448.59;4992247;28;20045;-71
2023/12/15 05:06:27;;;;;;;7.97;1.60;;;;;;;5.77;100.00;101449.44;5009432;28;20099;-71
2023/12/15 05:08:55;;;;;;;4.32;1.20;;;;;;;5.77;100.00;101480.63;5010049;28;20079;-71
2023/12/15 05:11:22;;;;;;;3.75;1.40;;;;;;;5.62;100.00;101471.19;4999065;28;20077;-71
2023/12/15 05:13:49;;;;;;;4.05;1.30;;;;;;;5.64;100.00;101478.09;5006429;28;20501;-71
2023/12/15 05:16:16;;;;;;;4.50;1.45;;;;;;;5.62;100.00;101487.66;5010035;28;20138;-71
2023/12/15 05:18:43;;;;;;;4.68;1.30;;;;;;;5.69;100.00;101485.88;5010574;28;20376;-71
2023/12/15 05:21:10;;;;;;;3.08;1.20;;;;;;;5.80;100.00;101476.28;5002419;28;20112;-71
2023/12/15 05:23:36;;;;;;;6.47;1.65;;;;;;;5.70;100.00;101477.19;4987526;28;20049;-71
2023/12/15 05:26:03;;;;;;;7.30;1.55;;;;;;;5.70;100.00;101475.50;5008773;28;20045;-71
2023/12/15 05:28:30;;;;;;;3.60;1.35;;;;;;;5.62;100.00;101466.00;5009958;28;20141;-71
2023/12/15 05:30:57;;;;;;;6.30;1.38;;;;;;;5.69;100.00;101493.69;5006256;28;20054;-71
2023/12/15 05:33:24;;;;;;;5.15;1.58;;;;;;;5.69;100.00;101496.28;4990767;28;20326;-70
2023/12/15 05:35:51;;;;;;;5.05;1.35;;;;;;;5.95;100.00;101503.94;5005197;28;20046;-70
2023/12/15 05:38:17;;;;;;;4.38;1.50;;;;;;;5.93;100.00;101504.78;5003605;28;20058;-71
2023/12/15 05:40:44;;;;;;;4.57;1.35;;;;;;;5.77;100.00;101514.41;5006573;28;20038;-71
2023/12/15 05:43:11;;;;;;;4.65;1.40;;;;;;;5.58;100.00;101492.84;5008641;28;20434;-71
2023/12/15 05:45:37;;;;;;;4.03;1.50;;;;;;;5.80;100.00;101501.41;4991439;28;20399;-71
2023/12/15 05:48:04;;;;;;;6.22;1.30;;;;;;;5.82;100.00;101505.72;5009302;28;20419;-70
2023/12/15 05:50:32;;;;;;;2.35;1.20;;;;;;;5.85;100.00;101497.06;4999792;28;20377;-70
2023/12/15 05:53:02;;;;;;;3.60;1.20;;;;;;;5.92;100.00;101508.28;4999297;28;20132;-70
2023/12/15 05:55:29;;;;;;;6.10;1.50;;;;;;;5.77;100.00;101510.09;5009423;28;20472;-71
2023/12/15 05:57:55;;;;;;;4.35;1.40;;;;;;;5.74;100.00;101514.41;5009129;28;20046;-71
2023/12/15 06:00:22;;;;;;;5.25;1.67;;;;;;;5.86;100.00;101525.66;5008592;28;20050;-71
2023/12/15 06:02:49;;;;;;;4.20;1.20;;;;;;;5.83;100.00;101536.03;5009263;28;20046;-71
2023/12/15 06:05:16;;;;;;;5.32;1.60;;;;;;;5.56;100.00;101539.66;4989013;28;20128;-71
2023/12/15 06:07:43;;;;;;;3.05;1.10;;;;;;;5.41;100.00;101524.97;5008362;28;20050;-71
2023/12/15 06:10:10;;;;;;;3.92;1.20;;;;;;;5.38;100.00;101519.78;5009139;28;20073;-71
2023/12/15 06:12:37;;;;;;;9.77;1.70;;;;;;;5.31;100.00;101533.66;5007695;28;20053;-71
2023/12/15 06:15:08;;;;;;;4.50;1.50;;;;;;;5.25;100.00;101531.09;5009117;28;20046;-71
2023/12/15 06:17:34;;;;;;;7.65;1.50;;;;;;;5.30;100.00;101556.16;5009780;28;20053;-71
2023/12/15 06:20:02;;;;;;;3.22;1.40;;;;;;;5.23;100.00;101548.41;5005532;28;20050;-71
2023/12/15 06:22:29;;;;;;;4.40;1.35;;;;;;;5.11;100.00;101547.53;4981672;28;20061;-71
2023/12/15 06:24:55;;;;;;;4.03;1.40;;;;;;;5.16;100.00;101557.94;5005284;28;20042;-70
2023/12/15 06:27:22;;;;;;;5.10;1.40;;;;;;;5.17;100.00;101559.66;5003215;28;20411;-71
2023/12/15 06:29:48;;;;;;;5.82;1.63;;;;;;;5.06;100.00;101567.44;5001407;28;20050;-71
2023/12/15 06:32:15;;;;;;;4.25;1.40;;;;;;;5.06;100.00;101557.06;5008971;28;20042;-71
2023/12/15 06:34:43;;;;;;;6.60;1.63;;;;;;;5.13;100.00;101547.53;5009337;28;20054;-71
2023/12/15 06:37:09;;;;;;;4.55;1.40;;;;;;;5.18;100.00;101543.22;4984924;28;20049;-70
2023/12/15 06:39:36;;;;;;;5.13;1.30;;;;;;;5.26;100.00;101546.66;5006877;28;20339;-70
2023/12/15 06:42:03;;;;;;;4.40;1.42;;;;;;;5.27;100.00;101560.50;5004945;28;20179;-70
2023/12/15 06:44:31;;;;;;;2.55;1.30;;;;;;;5.31;100.00;101541.44;4991220;28;20050;-70
2023/12/15 06:46:58;;;;;;;3.97;1.58;;;;;;;5.31;100.00;101536.25;5006567;28;20055;-70
2023/12/15 06:49:30;;;;;;;4.68;1.80;;;;;;;5.34;100.00;101538.84;4994816;28;20042;-70
2023/12/15 06:51:59;;;;;;;6.50;1.38;;;;;;;5.41;100.00;101547.47;5005726;28;20046;-70
2023/12/15 06:54:26;;;;;;;4.22;1.50;;;;;;;5.45;100.00;101564.78;5004279;28;20264;-70
2023/12/15 06:56:53;;;;;;;5.63;1.33;;;;;;;5.46;100.00;101558.72;4983062;28;20411;-70
2023/12/15 06:59:19;;;;;;;2.83;1.13;;;;;;;5.51;100.00;101551.78;5004478;28;20053;-70
2023/12/15 07:01:46;;;;;;;6.47;1.35;;;;;;;5.63;100.00;101554.34;5000949;28;20068;-70
2023/12/15 07:04:13;;;;;;;6.82;1.58;;;;;;;5.79;100.00;101557.72;5001128;28;20124;-70
2023/12/15 07:06:40;;;;;;;5.40;1.50;;;;;;;5.69;100.00;101563.84;4995356;28;20504;-70
2023/12/15 07:09:11;;;;;;;6.20;1.40;;;;;;;5.73;100.00;101560.34;4996172;28;20046;-70
2023/12/15 07:11:39;;;;;;;8.20;1.40;;;;;;;5.89;100.00;101558.53;4999350;28;20476;-70
2023/12/15 07:14:06;;;;;;;5.63;1.25;;;;;;;5.95;100.00;101561.13;5003167;28;20050;-70
2023/12/15 07:16:33;;;;;;;4.47;1.77;;;;;;;5.93;100.00;101557.63;5010467;28;20046;-70
2023/12/15 07:19:00;;;;;;;9.88;2.17;;;;;;;5.93;100.00;101569.78;5007035;28;20056;-70
2023/12/15 07:21:27;;;;;;;14.60;2.22;;;;;;;6.01;100.00;101575.84;4993923;28;20050;-71
2023/12/15 07:23:54;;;;;;;6.70;1.40;;;;;;;6.06;100.00;101556.75;5001572;28;20475;-71
2023/12/15 07:26:21;;;;;;;3.63;1.40;;;;;;;6.19;100.00;101556.66;5006560;28;20100;-71
2023/12/15 07:28:47;;;;;;;3.88;1.42;;;;;;;6.19;100.00;101551.47;4993580;28;20487;-71
2023/12/15 07:31:14;;;;;;;6.78;2.22;;;;;;;6.07;100.00;101563.69;5004097;28;20050;-71
2023/12/15 07:33:41;;;;;;;8.00;1.48;;;;;;;6.07;100.00;101565.41;5008604;28;20042;-71
2023/12/15 07:36:09;;;;;;;5.43;1.40;;;;;;;6.09;100.00;101571.44;5008814;28;20057;-71
2023/12/15 07:38:36;;;;;;;6.53;1.60;;;;;;;6.03;100.00;101574.97;4991075;28;20046;-71
2023/12/15 07:41:05;;;;;;;4.90;1.52;;;;;;;6.12;100.00;101581.00;4992515;28;20123;-71
2023/12/15 07:43:32;;;;;;;8.55;1.60;;;;;;;6.15;100.00;101575.78;5000025;28;20484;-70
2023/12/15 07:45:59;;;;;;;7.65;2.75;;;;;;;6.23;100.00;101587.88;5002120;28;20057;-70
2023/12/15 07:48:26;;;;;;;7.68;1.70;;;;;;;6.17;100.00;101582.69;4995166;28;20061;-70
2023/12/15 07:50:54;;;;;;;4.95;1.70;;;;;;;6.21;100.00;101571.38;5004673;28;20048;-70
2023/12/15 07:53:21;;;;;;;11.82;3.25;;;;;;;6.07;100.00;101576.69;5007416;28;20069;-70
2023/12/15 07:55:48;;;;;;;5.32;1.70;;;;;;;5.89;100.00;101582.78;5010135;28;20049;-69
2023/12/15 07:58:15;;;;;;;5.25;1.30;;;;;;;5.84;100.00;101578.47;5010906;28;20081;-70
2023/12/15 08:00:42;;;;;;;8.30;5.35;;;;;;;5.84;100.00;101586.28;5006607;28;20147;-71
2023/12/15 08:03:08;;;;;;;8.55;2.42;;;;;;;5.87;100.00;101600.13;5008734;28;20141;-71
2023/12/15 08:05:35;;;;;;;6.90;1.92;;;;;;;5.84;100.00;101594.06;4988514;28;20293;-72
2023/12/15 08:08:02;;;;;;;9.40;1.70;;;;;;;5.91;100.00;101606.19;4990914;28;20049;-72
2023/12/15 08:10:30;;;;;;;5.60;1.60;;;;;;;5.87;100.00;101628.72;5007107;28;20096;-72
2023/12/15 08:12:57;;;;;;;7.95;1.88;;;;;;;5.82;100.00;101625.25;5001109;28;20056;-72
2023/12/15 08:15:24;;;;;;;6.35;2.45;;;;;;;5.78;100.00;101640.91;5008234;28;20038;-72
2023/12/15 08:17:52;;;;;;;6.72;1.55;;;;;;;5.79;100.00;101647.81;4998151;28;20050;-72
2023/12/15 08:20:19;;;;;;;7.18;1.50;;;;;;;5.70;100.00;101643.50;4999783;28;20046;-72
2023/12/15 08:22:45;;;;;;;10.60;1.80;;;;;;;5.72;100.00;101641.78;4986133;28;20085;-72
2023/12/15 08:25:12;;;;;;;6.55;1.80;;;;;;;5.72;100.00;101657.38;5006829;28;20050;-71
2023/12/15 08:27:40;;;;;;;7.75;1.75;;;;;;;5.84;100.00;101656.44;5007583;28;20049;-71
2023/12/15 08:30:08;;;;;;;8.10;1.77;;;;;;;5.76;100.00;101660.84;5008538;28;20045;-71
2023/12/15 08:32:35;;;;;;;9.82;2.88;;;;;;;5.77;100.00;101678.13;4990948;28;20046;-72
2023/12/15 08:35:03;;;;;;;9.30;1.73;;;;;;;5.67;100.00;101653.91;5010773;28;20052;-71
2023/12/15 08:37:30;;;;;;;7.82;2.08;;;;;;;5.77;100.00;101663.44;4993944;28;20104;-72
2023/12/15 08:39:57;;;;;;;5.22;1.50;;;;;;;5.73;100.00;101656.50;5010753;28;20050;-72
2023/12/15 08:42:24;;;;;;;5.65;1.42;;;;;;;5.81;100.00;101656.50;5011219;28;20050;-72
2023/12/15 08:44:50;;;;;;;4.53;1.58;;;;;;;5.80;100.00;101663.41;5010803;28;20168;-72
2023/12/15 08:47:17;;;;;;;5.90;1.85;;;;;;;5.78;100.00;101661.69;5011201;28;20084;-71
2023/12/15 08:49:44;;;;;;;9.18;1.70;;;;;;;5.63;100.00;101645.28;5008187;28;20140;-71
2023/12/15 08:52:11;;;;;;;7.80;1.73;;;;;;;5.72;100.00;101654.78;5007462;28;20050;-72
2023/12/15 08:54:38;;;;;;;10.13;1.70;;;;;;;5.79;100.00;101658.19;5010312;28;20046;-71
2023/12/15 08:57:04;;;;;;;8.63;3.30;;;;;;;5.72;100.00;101659.97;5004111;28;20052;-71
2023/12/15 08:59:31;;;;;;;6.35;1.88;;;;;;;5.68;100.00;101659.13;5010824;28;20084;-71
2023/12/15 09:01:58;;;;;;;6.05;1.60;;;;;;;5.69;100.00;101672.97;5010540;28;20045;-71
2023/12/15 09:04:25;;;;;;;8.18;2.00;;;;;;;5.70;100.00;101688.56;5009144;28;20116;-72
2023/12/15 09:06:52;;;;;;;4.55;1.50;;;;;;;5.76;100.00;101692.00;5009742;28;20060;-72
2023/12/15 09:09:21;;;;;;;6.53;1.75;;;;;;;5.84;100.00;101701.53;5010765;28;20049;-72
2023/12/15 09:11:49;;;;;;;6.45;1.60;;;;;;;5.70;100.00;101679.88;5009431;28;20062;-72
2023/12/15 09:14:16;;;;;;;9.10;2.00;;;;;;;5.84;100.00;101701.53;4993571;28;20632;-72
2023/12/15 09:16:43;;;;;;;7.60;1.60;;;;;;;5.77;100.00;101693.72;5008979;28;20045;-71
2023/12/15 09:19:09;;;;;;;5.68;1.60;;;;;;;5.87;100.00;101695.44;5009843;28;20138;-72
2023/12/15 09:21:36;;;;;;;7.72;1.60;;;;;;;5.92;100.00;101690.25;5007845;28;20056;-73
2023/12/15 09:24:03;;;;;;;8.10;1.95;;;;;;;5.82;100.00;101679.84;5008749;28;20041;-71
2023/12/15 09:26:31;;;;;;;6.85;1.70;;;;;;;5.76;100.00;101685.06;5009771;28;20046;-72
2023/12/15 09:28:58;;;;;;;7.13;1.63;;;;;;;5.85;100.00;101702.38;5010891;28;20123;-71
2023/12/15 09:31:25;;;;;;;7.70;1.75;;;;;;;5.75;100.00;101696.31;5008063;28;20076;-71
2023/12/15 09:33:51;;;;;;;9.70;1.83;;;;;;;5.97;100.00;101710.19;5000886;28;20058;-72
2023/12/15 09:36:18;;;;;;;10.05;1.70;;;;;;;5.97;100.00;101717.13;5010585;28;20050;-72
2023/12/15 09:38:45;;;;;;;6.13;1.42;;;;;;;5.96;100.00;101721.44;5009205;28;20124;-72
2023/12/15 09:41:12;;;;;;;9.57;1.73;;;;;;;5.92;100.00;101729.22;5006538;28;20057;-72
2023/12/15 09:43:39;;;;;;;5.53;1.60;;;;;;;5.97;100.00;101724.94;5009800;28;20510;-72
2023/12/15 09:46:06;;;;;;;9.93;3.42;;;;;;;5.97;100.00;101737.91;5009511;28;20514;-72
2023/12/15 09:48:34;;;;;;;7.97;2.03;;;;;;;6.00;100.00;101730.09;5009639;28;20042;-72
2023/12/15 09:51:05;;;;;;;5.78;2.38;;;;;;;6.11;100.00;101743.06;4999695;28;20050;-73
2023/12/15 09:53:35;;;;;;;11.18;3.22;;;;;;;6.15;100.00;101747.41;5009773;28;20142;-72
2023/12/15 09:56:02;;;;;;;6.35;2.00;;;;;;;6.14;100.00;101732.66;5009760;28;20500;-72
2023/12/15 09:58:29;;;;;;;8.60;1.70;;;;;;;6.24;100.00;101730.00;5009890;28;20128;-73
2023/12/15 10:00:56;;;;;;;9.20;1.85;;;;;;;6.28;100.00;101756.88;5008258;28;20491;-71
2023/12/15 10:03:23;;;;;;;7.70;2.33;;;;;;;6.32;100.00;101757.72;5010563;28;20069;-72
2023/12/15 10:05:50;;;;;;;7.57;1.50;;;;;;;6.32;100.00;101743.00;5009607;28;20132;-71
2023/12/15 10:08:22;;;;;;;6.55;1.90;;;;;;;6.44;100.00;101724.72;5010497;28;20061;-71
2023/12/15 10:10:53;;;;;;;4.07;1.40;;;;;;;6.63;100.00;101738.50;4984840;28;20050;-72
2023/12/15 10:13:19;;;;;;;5.00;1.45;;;;;;;6.59;100.00;101744.63;5009326;28;20057;-71
2023/12/15 10:15:53;;;;;;;12.98;3.13;;;;;;;6.58;100.00;101719.44;5009631;28;20057;-71
2023/12/15 10:18:20;;;;;;;9.95;2.20;;;;;;;6.70;100.00;101728.94;5011270;28;20409;-71
2023/12/15 10:21:01;;;;;;;6.82;2.13;;;;;;;6.67;100.00;101707.28;5000421;28;20129;-72
2023/12/15 10:23:29;;;;;;;3.65;1.50;;;;;;;6.84;100.00;101726.25;5011891;28;20057;-72
2023/12/15 10:26:03;;;;;;;6.05;2.05;;;;;;;6.74;100.00;101729.78;5012369;28;20123;-71
2023/12/15 10:28:38;;;;;;;6.80;1.70;;;;;;;6.77;100.00;101712.41;5013625;28;20535;-72
2023/12/15 10:31:06;;;;;;;5.97;1.88;;;;;;;6.75;100.00;101736.72;5012124;28;20049;-72
2023/12/15 10:33:34;;;;;;;5.18;1.90;;;;;;;6.86;100.00;101729.72;4996452;28;20434;-71
2023/12/15 10:36:01;;;;;;;7.22;1.80;;;;;;;6.80;100.00;101711.53;5013162;28;20057;-72
2023/12/15 10:38:31;;;;;;;7.95;1.80;;;;;;;6.84;100.00;101714.09;5011691;28;20057;-72
2023/12/15 10:40:59;;;;;;;6.25;1.70;;;;;;;6.96;100.00;101712.31;5005581;28;20136;-72
2023/12/15 10:43:27;;;;;;;7.85;1.90;;;;;;;6.83;100.00;101706.28;5011652;28;20042;-72
2023/12/15 10:45:54;;;;;;;8.32;2.33;;;;;;;6.61;100.00;101684.75;5012169;28;20049;-72
2023/12/15 10:48:21;;;;;;;7.63;2.40;;;;;;;7.01;100.00;101744.34;5012459;28;20042;-72
2023/12/15 10:50:49;;;;;;;8.60;1.90;;;;;;;7.08;100.00;101758.22;5009522;28;20393;-72
2023/12/15 10:53:15;;;;;;;6.93;2.10;;;;;;;7.09;100.00;101753.00;5013260;28;20060;-71
2023/12/15 10:55:46;;;;;;;8.85;2.35;;;;;;;7.05;100.00;101722.66;5012601;28;20494;-72
2023/12/15 10:58:13;;;;;;;6.50;2.08;;;;;;;7.12;100.00;101716.53;5013282;28;20049;-72
2023/12/15 11:00:40;;;;;;;4.32;1.40;;;;;;;7.10;100.00;101699.16;5005760;28;20064;-72
2023/12/15 11:03:10;;;;;;;6.47;2.10;;;;;;;7.21;100.00;101708.63;5012860;28;20089;-72
2023/12/15 11:05:40;;;;;;;4.68;1.48;;;;;;;7.22;100.00;101697.34;5013215;28;20533;-72
2023/12/15 11:08:07;;;;;;;7.25;1.70;;;;;;;7.29;100.00;101715.50;5013153;28;20052;-72
2023/12/15 11:10:35;;;;;;;6.50;1.83;;;;;;;7.26;100.00;101719.03;5005561;28;20058;-71
2023/12/15 11:13:02;;;;;;;6.93;1.52;;;;;;;7.19;100.00;101733.81;5012372;28;20046;-72
2023/12/15 11:15:29;;;;;;;5.53;1.33;;;;;;;7.15;100.00;101742.56;5010452;28;20054;-72
2023/12/15 11:17:59;;;;;;;6.18;1.40;;;;;;;7.15;100.00;101745.16;5012176;28;20383;-72
2023/12/15 11:20:28;;;;;;;4.15;1.30;;;;;;;7.26;100.00;101747.69;5008724;28;20050;-72
2023/12/15 11:23:04;;;;;;;3.90;1.35;;;;;;;7.30;100.00;101733.75;5012713;28;20172;-72
2023/12/15 11:25:36;;;;;;;5.38;1.35;;;;;;;7.28;100.00;101712.06;5011314;28;20124;-72